Birdsville, Australia
Current Conditions -  °F | °C
As of 8:00 AM on Wednesday 28 Jan 2015 (Local Time) from YOLD Reporting Station
Clear Clear  
Wind Chill: 66°   Ceiling: Unl
Heat Index: 66°   Visibility: 6mi
Dew Point: 46°   Wind: 14mph
Humidity: 49%   Direction: 150°SSE
Pressure: 29.94"   Gusts: NA
Location:  25.9°S, 139.35°E
Report Text: YOLD 272200Z AUTO 15012KT 9999 // NCD 19/08 Q1014
Loading
Personal Weather Stations






























Interactive Weather Map New forecast layout! Learn more

10-Day Weather Forecast

Advertisements
Track Severe Weather on mobile